Bismarck, ND

8:55 AM CDT on April 26, 2015 (GMT -0500)
Mercer County Regional | | Change Station
CLOSE
Current Station
Airport
Location: Hazen,
Elevation: 1814 ft
Nearby Weather Stations

Elev 1814 ft 47.29 °N, 101.58 °W | Updated 20 minutes ago

Overcast
Overcast
46 °F
Feels Like 45 °F
N
4
Wind Variable Wind from WSW

Today
High -- | Low -- °F
--% Chance of Precip.
Yesterday
High -- | Low -- °F
Precip. -- in
6:36 AM 8:46 PM
First Quarter, 56% visible
Pressure 30.03 in
Visibility 0.5 miles
Clouds Mostly Cloudy 900 ft
Windchill 45 °F
Dew Point 46 °F
Humidity 100%
Rainfall 0.00 in
Snow Depth Not available.
UV 1 out of 12
Pollen 7.60 out of 12
Air Quality Not available.
Flu Activity Regional
METAR KHZE 261335Z AUTO 24003KT 1/2SM FG BKN009 08/08 A3003 RMK AO2

More Conditions Fewer Conditions

Pressure 30.03 in
Visibility 0.5 miles
Clouds Mostly Cloudy 900 ft
Windchill 45 °F
Dew Point 46 °F
Humidity 100%
Rainfall 0.00 in
Snow Depth Not available.
UV 1 out of 12
Pollen 7.60 out of 12
Air Quality Not available.
Flu Activity Regional
METAR KHZE 261335Z AUTO 24003KT 1/2SM FG BKN009 08/08 A3003 RMK AO2

More Conditions Fewer Conditions

The full scope of the disaster following a powerful 7.8-magnitude earthquake in Nepal may not come into view for days, but global charities are already sending emergency aid. Click to see how you can help.

10-Day Weather Forecast

Almanac

Astronomy

Apr. 26, 2015 Rise Set
Actual Time
Civil Twilight
Nautical Twilight
Astronomical Twilight
Moon
Length of Visible Light
Length of Day
Tomorrow will be .
, % of the Moon is Illuminated

Today's Extremes

State Highs State Lows

Community

WunderPhotos

Upload Photos

1,816,998 photos uploaded!

WunderBlogs® & News

Nearby

Air Quality

  Air Quality AQ Index Pollutant
Not available.

Snow Depth

Station Depth Elevation

Earthquake Activity

City Distance Mag. Time & Date
Minimum magnitude displayed is 2.5.

Coastal Water Temperatures

Place Temperature

Stations

Nearby Weather Stations

Station Location Temp. Windchill Dew Point Humidity Wind Precip. Elev Updated Type